Time;durP1;ratioP1;P1;durP2;ratioP2;P2;SDS_P1;SDS_P2;PMS_P1;PMS_P2;Temp;Humidity;BMP_temperature;BMP_pressure;BME280_temperature;BME280_humidity;BME280_pressure;Samples;Min_cycle;Max_cycle;Signal;HPM_P1;HPM_P2
2021/08/07 00:01:38;;;;;;;;;;;16.00;99.90;;;;;;5094677;28;20043;-75
2021/08/07 00:04:04;;;;;;;4.25;1.63;;;16.00;99.90;;;;;;5086079;28;19923;-75
2021/08/07 00:06:30;;;;;;;;;;;16.00;99.90;;;;;;5088051;28;20437;-75
2021/08/07 00:08:56;;;;;;;2.67;1.40;;;16.00;99.90;;;;;;5113651;28;20006;-75
2021/08/07 00:11:22;;;;;;;;;;;16.00;99.90;;;;;;5106898;28;20066;-75
2021/08/07 00:13:48;;;;;;;0.80;0.80;;;16.00;99.90;;;;;;5095174;28;19923;-75
2021/08/07 00:16:14;;;;;;;1.08;0.98;;;16.00;99.90;;;;;;5112010;28;20035;-74
2021/08/07 00:18:40;;;;;;;3.83;1.73;;;16.00;99.90;;;;;;5112151;28;20036;-75
2021/08/07 00:21:06;;;;;;;2.17;0.70;;;16.00;99.90;;;;;;5109436;28;20535;-75
2021/08/07 00:23:32;;;;;;;1.08;0.98;;;16.00;99.90;;;;;;5095337;28;20044;-74
2021/08/07 00:25:58;;;;;;;0.77;0.77;;;16.10;99.90;;;;;;5075863;28;20042;-74
2021/08/07 00:28:24;;;;;;;;;;;16.10;99.90;;;;;;5098503;28;20059;-74
2021/08/07 00:30:50;;;;;;;2.50;1.42;;;16.10;99.90;;;;;;5093599;28;19998;-74
2021/08/07 00:33:15;;;;;;;2.08;1.48;;;16.10;99.90;;;;;;5083734;28;20459;-74
2021/08/07 00:35:41;;;;;;;1.00;0.88;;;16.10;99.90;;;;;;5097243;28;20055;-75
2021/08/07 00:38:07;;;;;;;;;;;16.10;99.90;;;;;;5094456;28;20036;-74
2021/08/07 00:40:33;;;;;;;0.45;0.45;;;16.10;99.90;;;;;;5116246;27;19920;-74
2021/08/07 00:42:58;;;;;;;;;;;16.10;99.90;;;;;;5074634;28;20275;-75
2021/08/07 00:45:24;;;;;;;0.73;0.73;;;16.10;99.90;;;;;;5097305;28;19915;-75
2021/08/07 00:47:50;;;;;;;3.42;1.15;;;16.10;99.90;;;;;;5086084;28;20080;-75
2021/08/07 00:50:16;;;;;;;;;;;16.10;99.90;;;;;;5093459;28;20032;-75
2021/08/07 00:52:42;;;;;;;4.35;0.77;;;16.10;99.90;;;;;;5074239;28;20395;-75
2021/08/07 00:55:08;;;;;;;0.38;0.38;;;16.10;99.90;;;;;;5094690;28;20054;-75
2021/08/07 00:57:34;;;;;;;;;;;16.10;99.90;;;;;;5105399;28;20389;-75
2021/08/07 00:59:59;;;;;;;1.10;1.00;;;16.10;99.90;;;;;;5092030;28;19916;-75
2021/08/07 01:02:27;;;;;;;1.70;1.20;;;16.10;99.90;;;;;;5078769;28;20142;-75
2021/08/07 01:05:08;;;;;;;0.52;0.52;;;16.10;99.90;;;;;;5093811;28;20490;-75
2021/08/07 01:07:54;;;;;;;0.57;0.57;;;16.10;99.90;;;;;;5092168;28;20031;-75
2021/08/07 01:10:40;;;;;;;1.33;1.23;;;16.10;99.90;;;;;;5097395;28;20028;-75
2021/08/07 01:13:12;;;;;;;0.90;0.90;;;16.10;99.90;;;;;;5096161;28;20109;-76
2021/08/07 01:15:43;;;;;;;0.65;0.65;;;16.10;99.90;;;;;;5092302;28;20423;-76
2021/08/07 01:18:14;;;;;;;1.25;0.95;;;16.10;99.90;;;;;;5090555;28;20097;-76
2021/08/07 01:20:48;;;;;;;1.50;1.27;;;16.10;99.90;;;;;;5099711;28;20384;-75
2021/08/07 01:23:40;;;;;;;0.57;0.57;;;16.10;99.90;;;;;;5083303;28;20038;-75
2021/08/07 01:26:14;;;;;;;5.47;1.60;;;16.20;99.90;;;;;;5099880;28;20067;-75
2021/08/07 01:28:42;;;;;;;1.95;1.23;;;16.20;99.90;;;;;;5073825;28;20301;-75
2021/08/07 01:31:14;;;;;;;1.63;1.15;;;16.10;99.90;;;;;;5124297;27;20050;-75
2021/08/07 01:33:42;;;;;;;1.25;1.15;;;16.10;99.90;;;;;;5081837;28;20485;-75
2021/08/07 01:36:08;;;;;;;8.93;1.38;;;16.10;99.90;;;;;;5080996;28;20485;-76
2021/08/07 01:38:37;;;;;;;2.85;1.42;;;16.20;99.90;;;;;;5099744;28;20040;-75
2021/08/07 01:41:03;;;;;;;1.52;1.00;;;16.10;99.90;;;;;;5102928;28;20040;-75
2021/08/07 01:43:29;;;;;;;3.38;1.40;;;16.20;99.90;;;;;;5107209;28;20043;-75
2021/08/07 01:45:55;;;;;;;1.60;1.30;;;16.10;99.90;;;;;;5091106;28;20044;-75
2021/08/07 01:48:27;;;;;;;;;;;16.10;99.90;;;;;;5072839;28;20089;-75
2021/08/07 01:51:11;;;;;;;1.83;1.27;;;16.20;99.90;;;;;;5102516;28;19919;-75
2021/08/07 01:53:37;;;;;;;4.68;1.85;;;16.20;99.90;;;;;;5096880;28;20119;-75
2021/08/07 01:56:09;;;;;;;2.38;1.52;;;16.20;99.90;;;;;;5085306;28;20053;-75
2021/08/07 01:58:48;;;;;;;3.90;1.35;;;16.20;99.90;;;;;;5095443;28;20040;-76
2021/08/07 02:01:17;;;;;;;2.42;1.63;;;16.20;99.90;;;;;;5098016;28;20036;-74
2021/08/07 02:03:44;;;;;;;2.28;1.63;;;16.20;99.90;;;;;;5091878;28;20040;-74
2021/08/07 02:06:11;;;;;;;2.10;1.33;;;16.10;99.90;;;;;;5073875;28;20111;-75
2021/08/07 02:08:39;;;;;;;3.97;1.38;;;16.20;99.90;;;;;;5090876;28;20185;-75
2021/08/07 02:11:05;;;;;;;2.28;1.58;;;16.10;99.90;;;;;;5090954;28;20040;-75
2021/08/07 02:13:32;;;;;;;;;;;16.10;99.90;;;;;;5106875;28;20028;-75
2021/08/07 02:16:00;;;;;;;2.15;1.45;;;16.20;99.90;;;;;;5106555;28;19924;-75
2021/08/07 02:18:28;;;;;;;2.97;1.50;;;16.20;99.90;;;;;;5091241;28;20036;-75
2021/08/07 02:20:56;;;;;;;2.65;1.40;;;16.20;99.90;;;;;;5103998;28;20096;-76
2021/08/07 02:23:27;;;;;;;1.17;0.98;;;16.10;99.90;;;;;;5095376;28;20063;-75
2021/08/07 02:26:01;;;;;;;2.00;1.20;;;16.10;99.90;;;;;;5095468;28;20067;-75
2021/08/07 02:28:29;;;;;;;4.88;1.73;;;16.10;99.90;;;;;;5091062;28;20040;-76
2021/08/07 02:30:58;;;;;;;2.25;1.70;;;16.00;99.90;;;;;;5067713;28;20036;-76
2021/08/07 02:33:24;;;;;;;1.48;1.38;;;16.00;99.90;;;;;;5105824;28;20028;-76
2021/08/07 02:35:53;;;;;;;1.20;1.02;;;16.00;99.90;;;;;;5091960;28;20047;-75
2021/08/07 02:38:19;;;;;;;2.65;1.30;;;15.90;99.90;;;;;;5102429;28;20039;-75
2021/08/07 02:40:46;;;;;;;6.03;1.00;;;15.80;99.90;;;;;;5101716;28;20074;-75
2021/08/07 02:43:14;;;;;;;5.70;1.27;;;15.70;99.90;;;;;;5102472;28;20506;-75
2021/08/07 02:45:40;;;;;;;2.53;1.38;;;15.70;99.90;;;;;;5096055;28;20135;-74
2021/08/07 02:48:06;;;;;;;2.47;1.17;;;15.60;99.90;;;;;;5092340;28;20087;-74
2021/08/07 02:50:32;;;;;;;;;;;15.50;99.90;;;;;;5091808;28;20035;-74
2021/08/07 02:52:59;;;;;;;2.93;1.13;;;15.50;99.90;;;;;;5105226;28;19916;-75
2021/08/07 02:55:24;;;;;;;;;;;15.50;99.90;;;;;;5106299;28;20036;-76
2021/08/07 02:57:51;;;;;;;1.80;1.20;;;15.40;99.90;;;;;;5086619;28;19938;-76
2021/08/07 03:00:18;;;;;;;2.33;1.10;;;15.40;99.90;;;;;;5099348;28;20040;-75
2021/08/07 03:02:44;;;;;;;2.28;1.15;;;15.30;99.90;;;;;;5086650;28;20043;-76
2021/08/07 03:05:10;;;;;;;1.67;1.17;;;15.20;99.90;;;;;;5097424;28;20433;-77
2021/08/07 03:07:36;;;;;;;;;;;15.10;99.90;;;;;;5104791;28;20043;-77
2021/08/07 03:10:06;;;;;;;2.35;1.25;;;15.10;99.90;;;;;;5077143;28;19916;-75
2021/08/07 03:12:33;;;;;;;2.20;1.25;;;15.10;99.90;;;;;;5094204;28;20398;-75
2021/08/07 03:14:59;;;;;;;1.25;1.10;;;15.10;99.90;;;;;;5098844;28;20477;-74
2021/08/07 03:17:25;;;;;;;2.42;1.08;;;15.00;99.90;;;;;;5074886;28;20040;-74
2021/08/07 03:19:51;;;;;;;1.25;1.08;;;15.00;99.90;;;;;;5099936;28;20040;-74
2021/08/07 03:22:17;;;;;;;1.77;0.98;;;15.00;99.90;;;;;;5106289;28;20110;-74
2021/08/07 03:24:43;;;;;;;;;;;15.00;99.90;;;;;;5092724;28;20046;-74
2021/08/07 03:27:09;;;;;;;2.13;1.45;;;14.90;99.90;;;;;;5113554;28;19920;-74
2021/08/07 03:29:35;;;;;;;1.58;1.00;;;14.90;99.90;;;;;;5100479;28;20071;-74
2021/08/07 03:32:01;;;;;;;1.40;1.00;;;14.90;99.90;;;;;;5108076;28;20060;-75
2021/08/07 03:34:30;;;;;;;3.05;0.82;;;14.90;99.90;;;;;;5100905;28;20114;-75
2021/08/07 03:36:56;;;;;;;1.10;1.00;;;14.80;99.90;;;;;;5114063;28;20114;-75
2021/08/07 03:39:22;;;;;;;2.10;1.42;;;14.70;99.90;;;;;;5081366;28;20403;-75
2021/08/07 03:41:48;;;;;;;;;;;14.70;99.90;;;;;;5110827;27;20039;-75
2021/08/07 03:44:15;;;;;;;2.08;1.40;;;14.60;99.90;;;;;;5118977;27;19943;-75
2021/08/07 03:46:41;;;;;;;1.33;1.05;;;14.60;99.90;;;;;;5093111;28;20043;-75
2021/08/07 03:49:11;;;;;;;1.00;0.90;;;14.60;99.90;;;;;;5079675;28;20477;-75
2021/08/07 03:51:37;;;;;;;3.08;1.25;;;14.60;99.90;;;;;;5093460;28;20036;-75
2021/08/07 03:54:02;;;;;;;;;;;14.60;99.90;;;;;;5098765;28;20063;-75
2021/08/07 03:56:28;;;;;;;2.30;1.52;;;14.60;99.90;;;;;;5106736;28;19916;-76
2021/08/07 03:58:54;;;;;;;2.03;1.38;;;14.50;99.90;;;;;;5089668;28;20023;-75
2021/08/07 04:01:20;;;;;;;3.08;1.40;;;14.50;99.90;;;;;;5111534;28;20027;-76
2021/08/07 04:03:46;;;;;;;1.33;1.15;;;14.50;99.90;;;;;;5092222;28;20047;-75
2021/08/07 04:06:11;;;;;;;;;;;14.50;99.90;;;;;;5093572;28;20044;-76
2021/08/07 04:08:37;;;;;;;1.80;1.35;;;14.50;99.90;;;;;;5077164;28;20296;-75
2021/08/07 04:11:03;;;;;;;1.60;1.17;;;14.50;99.90;;;;;;5102381;28;20119;-76
2021/08/07 04:13:29;;;;;;;;;;;14.50;99.90;;;;;;5093789;28;20040;-76
2021/08/07 04:15:54;;;;;;;2.45;1.38;;;14.50;99.90;;;;;;5109301;28;19961;-75
2021/08/07 04:18:20;;;;;;;3.00;1.38;;;14.40;99.90;;;;;;5092742;28;20036;-76
2021/08/07 04:20:46;;;;;;;;;;;14.40;99.90;;;;;;5094616;28;20036;-75
2021/08/07 04:23:12;;;;;;;1.30;1.20;;;14.40;99.90;;;;;;5102050;28;19923;-75
2021/08/07 04:25:37;;;;;;;;;;;14.30;99.90;;;;;;5081773;28;20063;-76
2021/08/07 04:28:03;;;;;;;2.05;1.50;;;14.30;99.90;;;;;;5077881;28;19942;-76
2021/08/07 04:30:30;;;;;;;2.50;1.42;;;14.30;99.90;;;;;;5078592;28;20032;-75
2021/08/07 04:32:55;;;;;;;1.25;1.15;;;14.30;99.90;;;;;;5100456;28;20036;-75
2021/08/07 04:35:21;;;;;;;1.48;1.13;;;14.30;99.90;;;;;;5108980;28;20063;-75
2021/08/07 04:37:55;;;;;;;6.75;1.77;;;14.40;99.90;;;;;;5092690;28;20047;-75
2021/08/07 04:40:23;;;;;;;2.00;1.40;;;14.40;99.90;;;;;;5092762;28;20032;-74
2021/08/07 04:42:49;;;;;;;1.90;1.27;;;14.40;99.90;;;;;;5109351;27;20401;-76
2021/08/07 04:45:16;;;;;;;5.43;1.80;;;14.40;99.90;;;;;;5107083;28;20074;-76
2021/08/07 04:47:51;;;;;;;2.67;1.00;;;14.40;99.90;;;;;;5075180;28;20446;-76
2021/08/07 04:50:17;;;;;;;2.22;1.10;;;14.40;99.90;;;;;;5092172;28;20036;-76
2021/08/07 04:52:43;;;;;;;2.20;1.20;;;14.40;99.90;;;;;;5093024;28;20047;-76
2021/08/07 04:55:09;;;;;;;1.50;1.30;;;14.40;99.90;;;;;;5092520;28;20048;-76
2021/08/07 04:57:35;;;;;;;;;;;14.50;99.90;;;;;;5106499;28;20070;-76
2021/08/07 05:00:01;;;;;;;1.40;1.17;;;14.50;99.90;;;;;;5095887;28;20400;-76
2021/08/07 05:02:26;;;;;;;;;;;14.50;99.90;;;;;;5103367;28;20119;-76
2021/08/07 05:04:52;;;;;;;3.78;1.75;;;14.50;99.90;;;;;;5095657;28;19924;-75
2021/08/07 05:07:18;;;;;;;1.33;1.10;;;14.60;99.90;;;;;;5075031;28;20051;-75
2021/08/07 05:09:43;;;;;;;3.88;1.50;;;14.60;99.90;;;;;;5104773;28;20086;-76
2021/08/07 05:12:09;;;;;;;;;;;14.60;99.90;;;;;;5111930;28;20032;-77
2021/08/07 05:14:35;;;;;;;4.93;1.95;;;14.70;99.90;;;;;;5098781;28;19920;-76
2021/08/07 05:17:01;;;;;;;2.58;1.40;;;14.70;99.90;;;;;;5090448;28;20039;-76
2021/08/07 05:19:27;;;;;;;3.00;1.63;;;14.70;99.90;;;;;;5083100;28;20039;-76
2021/08/07 05:21:52;;;;;;;1.58;1.30;;;14.80;99.90;;;;;;5112283;28;20476;-75
2021/08/07 05:24:18;;;;;;;2.78;1.63;;;14.80;99.90;;;;;;5088540;28;20063;-76
2021/08/07 05:26:44;;;;;;;;;;;14.90;99.90;;;;;;5092203;28;20047;-75
2021/08/07 05:29:09;;;;;;;2.22;1.17;;;14.90;99.90;;;;;;5098696;28;19923;-75
2021/08/07 05:31:37;;;;;;;4.13;1.20;;;14.90;99.90;;;;;;5091079;28;20044;-76
2021/08/07 05:34:02;;;;;;;1.45;1.10;;;15.00;99.90;;;;;;5107131;28;20046;-76
2021/08/07 05:36:28;;;;;;;;;;;15.10;99.90;;;;;;5094545;28;20443;-76
2021/08/07 05:38:54;;;;;;;3.83;1.48;;;15.20;99.90;;;;;;5074388;28;20280;-76
2021/08/07 05:41:19;;;;;;;3.40;1.70;;;15.20;99.90;;;;;;5104242;28;20491;-75
2021/08/07 05:43:45;;;;;;;1.48;1.23;;;15.20;99.90;;;;;;5091698;28;20032;-76
2021/08/07 05:46:11;;;;;;;3.90;0.93;;;15.20;99.90;;;;;;5073576;28;20142;-76
2021/08/07 05:48:37;;;;;;;;;;;15.20;99.90;;;;;;5099077;28;20036;-76
2021/08/07 05:51:02;;;;;;;2.05;1.10;;;15.30;99.90;;;;;;5107500;28;19920;-76
2021/08/07 05:53:28;;;;;;;1.10;0.95;;;15.40;99.90;;;;;;5097559;28;20036;-77
2021/08/07 05:55:54;;;;;;;2.58;1.83;;;15.40;99.90;;;;;;5097856;28;20064;-76
2021/08/07 05:58:21;;;;;;;2.10;1.40;;;15.50;99.90;;;;;;5098803;28;20066;-77
2021/08/07 06:00:48;;;;;;;4.95;1.85;;;15.50;99.90;;;;;;5100991;28;20050;-77
2021/08/07 06:03:14;;;;;;;2.17;1.15;;;15.50;99.90;;;;;;5080441;28;20036;-77
2021/08/07 06:05:39;;;;;;;1.75;1.35;;;15.50;99.90;;;;;;5098513;28;20457;-78
2021/08/07 06:08:05;;;;;;;1.88;1.23;;;15.60;99.90;;;;;;5093573;28;20498;-77
2021/08/07 06:10:31;;;;;;;;;;;15.70;99.90;;;;;;5102524;28;20763;-76
2021/08/07 06:12:57;;;;;;;6.88;1.40;;;15.80;99.90;;;;;;5091867;28;19916;-77
2021/08/07 06:15:23;;;;;;;2.30;1.42;;;15.90;99.90;;;;;;5092887;28;20046;-79
2021/08/07 06:17:49;;;;;;;1.55;1.23;;;16.00;99.90;;;;;;5095710;28;20042;-78
2021/08/07 06:20:14;;;;;;;;;;;16.10;99.90;;;;;;5096118;28;20036;-78
2021/08/07 06:22:40;;;;;;;2.20;1.50;;;16.20;99.90;;;;;;5104799;28;19915;-77
2021/08/07 06:25:07;;;;;;;5.53;1.30;;;16.40;99.90;;;;;;5099668;28;20168;-76
2021/08/07 06:27:33;;;;;;;1.45;1.10;;;16.70;99.90;;;;;;5095393;28;20044;-76
2021/08/07 06:30:00;;;;;;;1.35;1.23;;;16.90;99.90;;;;;;5102712;28;20392;-76
2021/08/07 06:32:27;;;;;;;2.05;1.10;;;17.10;99.90;;;;;;5095647;28;20035;-76
2021/08/07 06:34:53;;;;;;;4.20;1.30;;;17.20;99.90;;;;;;5113350;28;20047;-76
2021/08/07 06:37:18;;;;;;;4.47;1.83;;;17.20;99.90;;;;;;5115763;28;20057;-76
2021/08/07 06:39:44;;;;;;;;;;;17.30;99.90;;;;;;5096231;28;20036;-76
2021/08/07 06:42:10;;;;;;;2.60;1.25;;;17.20;99.90;;;;;;5100918;28;19985;-76
2021/08/07 06:44:36;;;;;;;;;;;17.20;99.90;;;;;;5095549;28;20513;-75
2021/08/07 06:47:02;;;;;;;3.28;1.13;;;17.20;99.90;;;;;;5105754;28;20353;-76
2021/08/07 06:49:27;;;;;;;;;;;17.20;99.90;;;;;;5101470;28;20069;-76
2021/08/07 06:51:53;;;;;;;1.23;0.98;;;17.20;99.90;;;;;;5102149;28;20006;-76
2021/08/07 06:54:19;;;;;;;;;;;17.20;99.90;;;;;;5100659;28;20058;-76
2021/08/07 06:56:49;;;;;;;3.15;1.63;;;17.20;99.90;;;;;;5126600;27;19916;-76
2021/08/07 06:59:15;;;;;;;1.88;1.08;;;17.30;99.90;;;;;;5109692;28;20036;-76
2021/08/07 07:01:41;;;;;;;2.33;1.08;;;17.30;99.90;;;;;;5115711;27;20063;-76
2021/08/07 07:04:07;;;;;;;;;;;17.40;99.90;;;;;;5097405;28;20064;-76
2021/08/07 07:06:32;;;;;;;1.27;1.00;;;17.50;99.90;;;;;;5078548;28;19924;-77
2021/08/07 07:08:58;;;;;;;;;;;17.50;99.90;;;;;;5097345;28;20061;-77
2021/08/07 07:11:24;;;;;;;1.17;0.93;;;17.50;99.90;;;;;;5094169;28;20350;-76
2021/08/07 07:13:49;;;;;;;;;;;17.60;99.90;;;;;;5078993;28;20466;-76
2021/08/07 07:16:15;;;;;;;4.03;1.15;;;17.60;99.90;;;;;;5112619;28;19949;-77
2021/08/07 07:18:41;;;;;;;;;;;17.60;99.90;;;;;;5109303;28;20043;-75
2021/08/07 07:21:08;;;;;;;2.45;1.40;;;17.50;99.90;;;;;;5111416;28;19927;-76
2021/08/07 07:23:33;;;;;;;1.35;1.00;;;17.50;99.90;;;;;;5107143;28;20050;-76
2021/08/07 07:25:59;;;;;;;;;;;17.40;99.90;;;;;;5099102;28;20044;-76
2021/08/07 07:28:25;;;;;;;1.42;1.15;;;17.30;99.90;;;;;;5096524;28;19927;-76
2021/08/07 07:30:50;;;;;;;;;;;17.30;99.90;;;;;;5092341;28;20120;-76
2021/08/07 07:33:17;;;;;;;2.10;1.60;;;17.30;99.90;;;;;;5090181;28;19924;-78
2021/08/07 07:35:42;;;;;;;;;;;17.20;99.90;;;;;;5094251;28;20065;-77
2021/08/07 07:38:08;;;;;;;1.80;1.30;;;17.20;99.90;;;;;;5115306;28;19945;-78
2021/08/07 07:40:34;;;;;;;;;;;17.30;99.90;;;;;;5110806;28;20036;-80
2021/08/07 07:43:00;;;;;;;1.38;1.08;;;17.40;99.90;;;;;;5102692;28;19927;-78
2021/08/07 07:45:26;;;;;;;2.22;1.45;;;17.60;99.90;;;;;;5097080;28;20031;-78
2021/08/07 07:47:52;;;;;;;;;;;17.80;99.90;;;;;;5108581;28;20078;-78
2021/08/07 07:50:18;;;;;;;5.07;1.58;;;18.00;99.90;;;;;;5110934;28;19959;-79
2021/08/07 07:52:44;;;;;;;;;;;18.20;99.90;;;;;;5105453;28;20032;-79
2021/08/07 07:55:11;;;;;;;1.45;1.23;;;18.40;99.90;;;;;;5101473;28;20030;-79
2021/08/07 07:57:37;;;;;;;1.58;1.17;;;18.40;99.90;;;;;;5104751;28;20070;-78
2021/08/07 08:00:04;;;;;;;1.25;0.73;;;18.40;99.90;;;;;;5106240;28;20063;-78
2021/08/07 08:02:30;;;;;;;0.75;0.75;;;18.40;99.90;;;;;;5103586;28;20028;-78
2021/08/07 08:04:56;;;;;;;;;;;18.30;99.90;;;;;;5077211;28;20062;-78
2021/08/07 08:07:22;;;;;;;2.17;1.10;;;18.40;99.90;;;;;;5104374;28;19927;-78
2021/08/07 08:09:47;;;;;;;;;;;18.50;99.90;;;;;;5099736;28;20040;-78
2021/08/07 08:12:13;;;;;;;1.15;0.95;;;18.50;99.90;;;;;;5116016;27;20010;-79
2021/08/07 08:14:39;;;;;;;;;;;18.60;99.90;;;;;;5106644;28;20046;-79
2021/08/07 08:17:05;;;;;;;0.95;0.80;;;18.60;99.90;;;;;;5103383;28;19964;-79
2021/08/07 08:19:31;;;;;;;1.25;1.00;;;18.70;99.90;;;;;;5110064;28;20046;-78
2021/08/07 08:21:57;;;;;;;;;;;18.80;99.90;;;;;;5106011;28;20106;-79
2021/08/07 08:24:23;;;;;;;1.23;1.00;;;18.90;99.90;;;;;;5101293;28;20022;-78
2021/08/07 08:26:48;;;;;;;;;;;19.00;99.90;;;;;;5091621;28;20040;-78
2021/08/07 08:29:14;;;;;;;1.17;0.93;;;19.10;99.90;;;;;;5085836;28;20376;-78
2021/08/07 08:31:40;;;;;;;;;;;19.10;99.90;;;;;;5108539;28;20035;-79
2021/08/07 08:34:07;;;;;;;1.10;0.70;;;19.00;99.90;;;;;;5109788;28;19923;-79
2021/08/07 08:36:32;;;;;;;;;;;19.00;99.90;;;;;;5078384;28;20051;-79
2021/08/07 08:38:58;;;;;;;1.50;1.10;;;19.00;99.90;;;;;;5090000;28;19973;-79
2021/08/07 08:41:24;;;;;;;;;;;19.00;99.90;;;;;;5089796;28;20525;-78
2021/08/07 08:43:53;;;;;;;1.35;1.08;;;19.00;99.90;;;;;;5089164;28;19916;-79
2021/08/07 08:46:20;;;;;;;0.82;0.80;;;19.10;99.90;;;;;;5083243;28;20109;-77
2021/08/07 08:48:46;;;;;;;1.23;1.13;;;19.10;99.90;;;;;;5104500;28;20043;-77
2021/08/07 08:51:14;;;;;;;2.22;0.88;;;19.20;99.90;;;;;;5109820;28;20043;-79
2021/08/07 08:53:40;;;;;;;2.58;0.85;;;19.30;99.90;;;;;;5095654;28;20047;-78
2021/08/07 08:56:07;;;;;;;1.13;1.02;;;19.30;99.90;;;;;;5089758;28;20036;-77
2021/08/07 08:58:35;;;;;;;2.53;0.90;;;19.50;99.90;;;;;;5108553;28;20051;-77
2021/08/07 09:01:06;;;;;;;1.85;0.77;;;19.60;99.90;;;;;;5107231;28;20054;-78
2021/08/07 09:03:32;;;;;;;2.13;1.15;;;19.80;99.90;;;;;;5104638;28;20039;-78
2021/08/07 09:05:58;;;;;;;0.77;0.77;;;19.80;99.90;;;;;;5103059;28;20083;-77
2021/08/07 09:08:24;;;;;;;1.27;1.05;;;19.80;99.90;;;;;;5108756;28;20059;-77
2021/08/07 09:11:15;;;;;;;2.97;1.10;;;19.70;99.90;;;;;;5104830;28;20512;-77
2021/08/07 09:13:41;;;;;;;1.58;0.93;;;19.50;99.90;;;;;;5099240;28;20039;-77
2021/08/07 09:16:08;;;;;;;1.98;0.93;;;19.30;99.90;;;;;;5081538;28;20044;-78
2021/08/07 09:18:35;;;;;;;1.30;0.95;;;19.40;99.90;;;;;;5097069;28;20032;-77
2021/08/07 09:21:18;;;;;;;2.20;1.20;;;19.50;99.90;;;;;;5095505;28;20043;-79
2021/08/07 09:23:44;;;;;;;4.28;1.38;;;19.80;99.90;;;;;;5110973;28;20042;-77
2021/08/07 09:26:14;;;;;;;1.52;1.00;;;20.10;99.90;;;;;;5112291;28;20111;-78
2021/08/07 09:28:49;;;;;;;2.08;1.13;;;20.30;99.90;;;;;;5111263;28;20044;-78
2021/08/07 09:31:15;;;;;;;0.70;0.70;;;20.40;99.90;;;;;;5105742;28;20502;-77
2021/08/07 09:33:41;;;;;;;1.13;0.55;;;20.30;99.90;;;;;;5110649;28;20031;-78
2021/08/07 09:36:08;;;;;;;0.88;0.63;;;20.30;99.90;;;;;;5093998;28;20396;-77
2021/08/07 09:38:42;;;;;;;0.60;0.60;;;20.30;99.90;;;;;;5111076;28;20035;-77
2021/08/07 09:41:08;;;;;;;2.33;0.98;;;20.30;99.90;;;;;;5073415;28;20032;-78
2021/08/07 09:43:40;;;;;;;1.65;0.75;;;20.40;99.90;;;;;;5102860;28;20416;-78
2021/08/07 09:46:17;;;;;;;1.58;0.90;;;20.60;99.90;;;;;;5106296;28;20035;-77
2021/08/07 09:48:50;;;;;;;1.52;1.00;;;20.70;99.90;;;;;;5109591;28;20102;-77
2021/08/07 09:51:23;;;;;;;1.02;0.85;;;20.90;99.90;;;;;;5100764;28;20063;-77
2021/08/07 09:54:15;;;;;;;2.00;1.17;;;21.00;99.90;;;;;;5112762;28;20032;-79
2021/08/07 09:56:45;;;;;;;1.48;0.85;;;21.20;99.90;;;;;;5104678;28;20192;-78
2021/08/07 09:59:11;;;;;;;1.27;1.05;;;21.20;99.90;;;;;;5106792;28;20039;-77
2021/08/07 10:01:38;;;;;;;2.08;0.80;;;21.50;99.90;;;;;;5109956;28;20035;-77
2021/08/07 10:04:05;;;;;;;0.68;0.60;;;21.60;99.90;;;;;;5111084;28;20123;-78
2021/08/07 10:06:33;;;;;;;1.35;0.85;;;21.80;99.90;;;;;;5109378;28;20195;-77
2021/08/07 10:09:00;;;;;;;0.50;0.50;;;21.90;99.90;;;;;;5099233;28;20050;-78
2021/08/07 10:11:26;;;;;;;0.55;0.55;;;22.00;99.90;;;;;;5111577;28;20032;-77
2021/08/07 10:13:53;;;;;;;1.23;0.95;;;22.20;99.90;;;;;;5111049;28;20036;-77
2021/08/07 10:16:20;;;;;;;0.60;0.60;;;22.50;99.90;;;;;;5097073;28;20166;-78
2021/08/07 10:18:47;;;;;;;0.68;0.63;;;22.70;99.90;;;;;;5089822;28;20481;-77
2021/08/07 10:21:14;;;;;;;0.50;0.50;;;22.80;99.90;;;;;;5074357;28;20067;-77
2021/08/07 10:23:41;;;;;;;1.55;0.70;;;22.80;99.90;;;;;;5073441;28;20562;-79
2021/08/07 10:26:10;;;;;;;5.18;0.70;;;22.70;99.90;;;;;;5110463;28;20043;-78
2021/08/07 10:28:43;;;;;;;1.02;0.95;;;22.60;99.90;;;;;;5090947;28;20036;-77
2021/08/07 10:31:13;;;;;;;0.70;0.70;;;22.50;99.90;;;;;;5074586;28;20042;-77
2021/08/07 10:33:43;;;;;;;0.88;0.77;;;22.50;99.90;;;;;;5071956;28;20036;-77
2021/08/07 10:36:11;;;;;;;1.30;0.60;;;22.60;99.90;;;;;;5074653;28;20044;-77
2021/08/07 10:38:38;;;;;;;2.03;0.77;;;22.70;99.90;;;;;;5091230;28;20032;-77
2021/08/07 10:41:05;;;;;;;2.50;0.90;;;22.90;99.90;;;;;;5094011;28;20028;-77
2021/08/07 10:43:35;;;;;;;0.55;0.55;;;23.00;99.90;;;;;;5090874;28;20044;-77
2021/08/07 10:46:04;;;;;;;0.35;0.35;;;23.00;99.90;;;;;;5091401;28;20035;-78
2021/08/07 10:48:40;;;;;;;0.65;0.50;;;23.20;99.00;;;;;;5071359;28;20073;-76
2021/08/07 10:51:18;;;;;;;1.00;0.60;;;23.10;99.90;;;;;;5091117;28;20048;-77
2021/08/07 10:53:48;;;;;;;0.40;0.40;;;23.00;97.10;;;;;;5090554;28;20036;-77
2021/08/07 10:56:28;;;;;;;0.50;0.50;;;22.90;99.90;;;;;;5093499;28;20070;-77
2021/08/07 10:58:58;;;;;;;1.70;0.80;;;23.10;99.80;;;;;;5107562;28;20119;-77
2021/08/07 11:01:26;;;;;;;0.85;0.75;;;23.20;99.90;;;;;;5094984;28;20444;-77
2021/08/07 11:04:01;;;;;;;0.55;0.50;;;23.30;99.20;;;;;;5092308;28;20036;-77
2021/08/07 11:06:42;;;;;;;0.47;0.47;;;23.30;98.00;;;;;;5098314;28;20046;-77
2021/08/07 11:09:21;;;;;;;0.43;0.43;;;23.20;97.40;;;;;;5094057;28;20046;-78
2021/08/07 11:11:49;;;;;;;0.60;0.60;;;23.20;97.40;;;;;;5093556;28;20043;-77
2021/08/07 11:14:21;;;;;;;1.00;0.73;;;23.30;98.20;;;;;;5100338;28;20396;-77
2021/08/07 11:17:05;;;;;;;0.63;0.52;;;23.30;97.60;;;;;;5092635;28;20546;-78
2021/08/07 11:19:49;;;;;;;0.80;0.70;;;23.30;94.50;;;;;;5093733;28;20039;-78
2021/08/07 11:22:15;;;;;;;0.60;0.60;;;23.20;95.00;;;;;;5094522;28;20036;-77
2021/08/07 11:24:44;;;;;;;2.38;0.70;;;23.10;92.20;;;;;;5100420;28;20040;-77
2021/08/07 11:27:10;;;;;;;2.03;0.70;;;23.10;93.10;;;;;;5075662;28;20142;-77
2021/08/07 11:30:17;;;;;;;1.00;0.68;;;23.10;93.40;;;;;;5095676;28;20496;-77
2021/08/07 11:33:13;;;;;;;0.75;0.70;;;23.10;93.00;;;;;;5093049;28;20047;-77
2021/08/07 11:35:41;;;;;;;0.47;0.47;;;23.10;92.80;;;;;;5093766;28;20064;-78
2021/08/07 11:38:13;;;;;;;0.77;0.73;;;23.00;93.30;;;;;;5094264;28;20055;-77
2021/08/07 11:40:39;;;;;;;0.50;0.50;;;23.00;93.80;;;;;;5110027;28;20074;-77
2021/08/07 11:43:18;;;;;;;0.60;0.60;;;23.10;93.20;;;;;;5075590;28;20040;-76
2021/08/07 11:45:45;;;;;;;0.38;0.38;;;23.10;92.80;;;;;;5094140;28;20521;-74
2021/08/07 11:48:20;;;;;;;0.40;0.40;;;23.30;93.80;;;;;;5093571;28;20044;-76
2021/08/07 11:50:46;;;;;;;3.58;0.63;;;23.60;92.80;;;;;;5093479;28;20039;-77
2021/08/07 11:53:15;;;;;;;2.47;0.63;;;23.90;91.80;;;;;;5094259;28;20052;-77
2021/08/07 11:55:42;;;;;;;0.88;0.70;;;24.00;91.30;;;;;;5094000;28;20114;-77
2021/08/07 11:58:11;;;;;;;0.90;0.73;;;24.00;89.70;;;;;;5100550;28;20059;-77
2021/08/07 12:00:38;;;;;;;0.38;0.38;;;23.90;89.40;;;;;;5098871;28;20036;-77
2021/08/07 12:03:11;;;;;;;0.50;0.50;;;23.90;90.70;;;;;;5113491;28;20114;-77
2021/08/07 12:05:48;;;;;;;1.65;0.70;;;24.00;85.00;;;;;;5093251;28;20097;-77
2021/08/07 12:08:13;;;;;;;;;;;24.10;90.50;;;;;;5094378;28;20036;-77
2021/08/07 12:11:07;;;;;;;0.70;0.70;;;24.10;91.40;;;;;;5093284;28;19942;-77
2021/08/07 12:13:37;;;;;;;1.17;0.70;;;24.20;91.70;;;;;;5090826;28;20074;-77
2021/08/07 12:16:03;;;;;;;0.70;0.70;;;24.30;90.60;;;;;;5106488;28;20481;-80
2021/08/07 12:18:49;;;;;;;2.45;0.75;;;24.40;91.20;;;;;;5075430;28;20128;-77
2021/08/07 12:21:32;;;;;;;0.45;0.45;;;24.40;88.90;;;;;;5075215;28;20036;-78
2021/08/07 12:24:02;;;;;;;3.15;0.63;;;24.50;83.50;;;;;;5095479;28;20032;-77
2021/08/07 12:26:30;;;;;;;1.70;0.80;;;24.70;87.20;;;;;;5109151;28;20047;-77
2021/08/07 12:29:03;;;;;;;0.85;0.70;;;24.70;87.20;;;;;;5099103;28;20039;-77
2021/08/07 12:31:47;;;;;;;0.68;0.65;;;24.50;86.10;;;;;;5074519;28;20040;-79
2021/08/07 12:34:21;;;;;;;0.60;0.60;;;24.40;86.90;;;;;;5074888;28;20047;-77
2021/08/07 12:37:00;;;;;;;0.50;0.50;;;24.60;89.30;;;;;;5092869;28;20051;-78
2021/08/07 12:39:29;;;;;;;0.60;0.57;;;25.00;90.10;;;;;;5093461;28;20534;-77
2021/08/07 12:41:56;;;;;;;0.77;0.60;;;25.10;88.90;;;;;;5096559;28;20050;-78
2021/08/07 12:44:24;;;;;;;1.00;0.73;;;25.10;86.50;;;;;;5095458;28;20036;-78
2021/08/07 12:46:54;;;;;;;1.02;0.70;;;25.00;85.60;;;;;;5092921;28;20039;-78
2021/08/07 12:49:42;;;;;;;0.95;0.80;;;24.90;83.10;;;;;;5113863;28;20045;-79
2021/08/07 12:52:15;;;;;;;0.45;0.45;;;24.80;79.10;;;;;;5080666;28;20088;-80
2021/08/07 12:54:41;;;;;;;1.05;0.68;;;24.50;77.90;;;;;;5075015;28;20066;-78
2021/08/07 12:57:25;;;;;;;3.95;0.80;;;24.20;78.60;;;;;;5105106;28;20067;-77
2021/08/07 12:59:53;;;;;;;1.45;0.70;;;23.80;80.50;;;;;;5095469;28;20040;-78
2021/08/07 13:02:21;;;;;;;0.75;0.52;;;23.50;82.60;;;;;;5080950;28;20089;-78
2021/08/07 13:04:52;;;;;;;0.50;0.50;;;23.20;84.60;;;;;;5091480;28;20068;-77
2021/08/07 13:07:31;;;;;;;0.90;0.80;;;23.10;88.00;;;;;;5090972;28;20046;-77